sensor_id;sensor_type;location;lat;lon;timestamp;P1;durP1;ratioP1;P2;durP2;ratioP2
10725;SDS011;5414;59.782;16.378;2022-10-16T00:01:34;17.83;;;15.97;;
10725;SDS011;5414;59.782;16.378;2022-10-16T00:04:01;17.83;;;15.93;;
10725;SDS011;5414;59.782;16.378;2022-10-16T00:06:29;17.90;;;15.97;;
10725;SDS011;5414;59.782;16.378;2022-10-16T00:08:55;17.97;;;16.20;;
10725;SDS011;5414;59.782;16.378;2022-10-16T00:11:23;18.17;;;15.80;;
10725;SDS011;5414;59.782;16.378;2022-10-16T00:13:50;19.67;;;16.63;;
10725;SDS011;5414;59.782;16.378;2022-10-16T00:16:17;16.77;;;14.87;;
10725;SDS011;5414;59.782;16.378;2022-10-16T00:18:43;17.77;;;15.87;;
10725;SDS011;5414;59.782;16.378;2022-10-16T00:21:13;16.47;;;14.87;;
10725;SDS011;5414;59.782;16.378;2022-10-16T00:23:40;17.83;;;15.93;;
10725;SDS011;5414;59.782;16.378;2022-10-16T00:26:09;17.80;;;15.90;;
10725;SDS011;5414;59.782;16.378;2022-10-16T00:28:42;16.60;;;14.97;;
10725;SDS011;5414;59.782;16.378;2022-10-16T00:31:10;17.57;;;15.57;;
10725;SDS011;5414;59.782;16.378;2022-10-16T00:33:38;17.17;;;15.47;;
10725;SDS011;5414;59.782;16.378;2022-10-16T00:36:05;16.93;;;15.10;;
10725;SDS011;5414;59.782;16.378;2022-10-16T00:38:32;17.67;;;15.13;;
10725;SDS011;5414;59.782;16.378;2022-10-16T00:40:58;17.07;;;15.23;;
10725;SDS011;5414;59.782;16.378;2022-10-16T00:44:01;19.43;;;15.60;;
10725;SDS011;5414;59.782;16.378;2022-10-16T00:48:50;16.50;;;14.83;;
10725;SDS011;5414;59.782;16.378;2022-10-16T00:51:17;16.57;;;14.70;;
10725;SDS011;5414;59.782;16.378;2022-10-16T00:53:45;16.33;;;14.63;;
10725;SDS011;5414;59.782;16.378;2022-10-16T00:56:12;15.87;;;14.20;;
10725;SDS011;5414;59.782;16.378;2022-10-16T00:58:38;16.93;;;14.73;;
10725;SDS011;5414;59.782;16.378;2022-10-16T01:01:04;16.17;;;14.47;;
10725;SDS011;5414;59.782;16.378;2022-10-16T01:03:31;16.17;;;14.43;;
10725;SDS011;5414;59.782;16.378;2022-10-16T01:08:58;15.20;;;13.67;;
10725;SDS011;5414;59.782;16.378;2022-10-16T01:11:32;14.87;;;13.37;;
10725;SDS011;5414;59.782;16.378;2022-10-16T01:14:00;15.43;;;13.83;;
10725;SDS011;5414;59.782;16.378;2022-10-16T01:16:31;15.40;;;13.73;;
10725;SDS011;5414;59.782;16.378;2022-10-16T01:19:09;15.87;;;14.17;;
10725;SDS011;5414;59.782;16.378;2022-10-16T01:21:38;15.93;;;14.33;;
10725;SDS011;5414;59.782;16.378;2022-10-16T01:27:00;15.10;;;13.53;;
10725;SDS011;5414;59.782;16.378;2022-10-16T01:29:32;14.47;;;13.07;;
10725;SDS011;5414;59.782;16.378;2022-10-16T01:32:01;15.30;;;13.73;;
10725;SDS011;5414;59.782;16.378;2022-10-16T01:34:35;14.77;;;13.27;;
10725;SDS011;5414;59.782;16.378;2022-10-16T01:37:05;14.60;;;13.10;;
10725;SDS011;5414;59.782;16.378;2022-10-16T01:39:32;13.83;;;12.43;;
10725;SDS011;5414;59.782;16.378;2022-10-16T01:42:09;14.03;;;12.63;;
10725;SDS011;5414;59.782;16.378;2022-10-16T01:44:37;12.87;;;11.67;;
10725;SDS011;5414;59.782;16.378;2022-10-16T01:47:04;13.33;;;11.80;;
10725;SDS011;5414;59.782;16.378;2022-10-16T01:49:32;12.87;;;11.57;;
10725;SDS011;5414;59.782;16.378;2022-10-16T01:51:59;12.17;;;10.90;;
10725;SDS011;5414;59.782;16.378;2022-10-16T01:54:27;13.37;;;11.13;;
10725;SDS011;5414;59.782;16.378;2022-10-16T01:56:53;11.13;;;10.00;;
10725;SDS011;5414;59.782;16.378;2022-10-16T01:59:21;9.00;;;8.10;;
10725;SDS011;5414;59.782;16.378;2022-10-16T02:01:50;8.93;;;8.10;;
10725;SDS011;5414;59.782;16.378;2022-10-16T02:06:48;6.83;;;5.23;;
10725;SDS011;5414;59.782;16.378;2022-10-16T02:09:14;4.60;;;4.17;;
10725;SDS011;5414;59.782;16.378;2022-10-16T02:11:41;4.30;;;3.90;;
10725;SDS011;5414;59.782;16.378;2022-10-16T02:14:08;4.87;;;3.60;;
10725;SDS011;5414;59.782;16.378;2022-10-16T02:16:41;3.90;;;3.57;;
10725;SDS011;5414;59.782;16.378;2022-10-16T02:19:07;3.80;;;3.47;;
10725;SDS011;5414;59.782;16.378;2022-10-16T02:26:36;4.03;;;3.53;;
10725;SDS011;5414;59.782;16.378;2022-10-16T02:29:04;3.37;;;3.07;;
10725;SDS011;5414;59.782;16.378;2022-10-16T02:31:33;2.90;;;2.70;;
10725;SDS011;5414;59.782;16.378;2022-10-16T02:34:00;2.90;;;2.70;;
10725;SDS011;5414;59.782;16.378;2022-10-16T02:36:29;3.80;;;1.93;;
10725;SDS011;5414;59.782;16.378;2022-10-16T02:38:56;2.17;;;1.83;;
10725;SDS011;5414;59.782;16.378;2022-10-16T02:41:24;2.57;;;2.10;;
10725;SDS011;5414;59.782;16.378;2022-10-16T02:43:50;2.37;;;2.10;;
10725;SDS011;5414;59.782;16.378;2022-10-16T02:46:16;2.37;;;2.17;;
10725;SDS011;5414;59.782;16.378;2022-10-16T02:48:42;2.97;;;2.67;;
10725;SDS011;5414;59.782;16.378;2022-10-16T02:51:08;3.87;;;3.33;;
10725;SDS011;5414;59.782;16.378;2022-10-16T02:53:34;3.30;;;2.70;;
10725;SDS011;5414;59.782;16.378;2022-10-16T02:56:00;4.10;;;2.93;;
10725;SDS011;5414;59.782;16.378;2022-10-16T02:58:28;3.87;;;2.70;;
10725;SDS011;5414;59.782;16.378;2022-10-16T03:00:54;2.50;;;2.30;;
10725;SDS011;5414;59.782;16.378;2022-10-16T03:03:20;2.10;;;1.83;;
10725;SDS011;5414;59.782;16.378;2022-10-16T03:05:46;2.63;;;2.10;;
10725;SDS011;5414;59.782;16.378;2022-10-16T03:08:13;2.03;;;1.93;;
10725;SDS011;5414;59.782;16.378;2022-10-16T03:10:39;1.70;;;1.60;;
10725;SDS011;5414;59.782;16.378;2022-10-16T03:13:05;2.03;;;1.80;;
10725;SDS011;5414;59.782;16.378;2022-10-16T03:15:31;3.40;;;1.83;;
10725;SDS011;5414;59.782;16.378;2022-10-16T03:17:57;1.70;;;1.60;;
10725;SDS011;5414;59.782;16.378;2022-10-16T03:20:25;1.80;;;1.70;;
10725;SDS011;5414;59.782;16.378;2022-10-16T03:22:52;2.03;;;1.70;;
10725;SDS011;5414;59.782;16.378;2022-10-16T03:25:18;1.70;;;1.60;;
10725;SDS011;5414;59.782;16.378;2022-10-16T03:27:44;1.77;;;1.67;;
10725;SDS011;5414;59.782;16.378;2022-10-16T03:30:11;1.63;;;1.53;;
10725;SDS011;5414;59.782;16.378;2022-10-16T03:32:37;1.97;;;1.73;;
10725;SDS011;5414;59.782;16.378;2022-10-16T03:35:03;1.93;;;1.63;;
10725;SDS011;5414;59.782;16.378;2022-10-16T03:37:31;1.80;;;1.70;;
10725;SDS011;5414;59.782;16.378;2022-10-16T03:39:57;1.60;;;1.50;;
10725;SDS011;5414;59.782;16.378;2022-10-16T03:42:25;1.80;;;1.70;;
10725;SDS011;5414;59.782;16.378;2022-10-16T03:44:52;1.80;;;1.70;;
10725;SDS011;5414;59.782;16.378;2022-10-16T03:47:18;1.77;;;1.60;;
10725;SDS011;5414;59.782;16.378;2022-10-16T03:49:46;1.87;;;1.70;;
10725;SDS011;5414;59.782;16.378;2022-10-16T03:52:12;2.13;;;1.50;;
10725;SDS011;5414;59.782;16.378;2022-10-16T03:54:38;1.67;;;1.57;;
10725;SDS011;5414;59.782;16.378;2022-10-16T03:57:04;2.23;;;1.60;;
10725;SDS011;5414;59.782;16.378;2022-10-16T03:59:31;1.70;;;1.60;;
10725;SDS011;5414;59.782;16.378;2022-10-16T04:01:56;1.83;;;1.70;;
10725;SDS011;5414;59.782;16.378;2022-10-16T04:04:22;3.83;;;1.50;;
10725;SDS011;5414;59.782;16.378;2022-10-16T04:06:49;1.90;;;1.60;;
10725;SDS011;5414;59.782;16.378;2022-10-16T04:09:15;2.50;;;1.57;;
10725;SDS011;5414;59.782;16.378;2022-10-16T04:11:41;1.50;;;1.37;;
10725;SDS011;5414;59.782;16.378;2022-10-16T04:14:08;1.93;;;1.73;;
10725;SDS011;5414;59.782;16.378;2022-10-16T04:16:34;3.37;;;1.80;;
10725;SDS011;5414;59.782;16.378;2022-10-16T04:19:00;3.13;;;2.00;;
10725;SDS011;5414;59.782;16.378;2022-10-16T04:21:26;1.73;;;1.60;;
10725;SDS011;5414;59.782;16.378;2022-10-16T04:23:52;1.97;;;1.77;;
10725;SDS011;5414;59.782;16.378;2022-10-16T04:26:18;2.10;;;1.90;;
10725;SDS011;5414;59.782;16.378;2022-10-16T04:28:44;1.83;;;1.70;;
10725;SDS011;5414;59.782;16.378;2022-10-16T04:31:10;2.57;;;1.80;;
10725;SDS011;5414;59.782;16.378;2022-10-16T04:33:36;2.03;;;1.60;;
10725;SDS011;5414;59.782;16.378;2022-10-16T04:36:02;1.90;;;1.70;;
10725;SDS011;5414;59.782;16.378;2022-10-16T04:38:29;2.40;;;1.67;;
10725;SDS011;5414;59.782;16.378;2022-10-16T04:40:55;2.10;;;1.90;;
10725;SDS011;5414;59.782;16.378;2022-10-16T04:43:21;3.63;;;2.20;;
10725;SDS011;5414;59.782;16.378;2022-10-16T04:45:48;3.57;;;2.23;;
10725;SDS011;5414;59.782;16.378;2022-10-16T04:48:17;2.47;;;2.10;;
10725;SDS011;5414;59.782;16.378;2022-10-16T04:50:43;2.50;;;2.30;;
10725;SDS011;5414;59.782;16.378;2022-10-16T04:53:09;2.60;;;2.40;;
10725;SDS011;5414;59.782;16.378;2022-10-16T04:55:36;2.50;;;2.30;;
10725;SDS011;5414;59.782;16.378;2022-10-16T04:58:03;2.90;;;2.60;;
10725;SDS011;5414;59.782;16.378;2022-10-16T05:00:29;3.43;;;2.80;;
10725;SDS011;5414;59.782;16.378;2022-10-16T05:02:55;3.07;;;2.53;;
10725;SDS011;5414;59.782;16.378;2022-10-16T05:05:22;2.70;;;2.50;;
10725;SDS011;5414;59.782;16.378;2022-10-16T05:07:49;3.23;;;2.93;;
10725;SDS011;5414;59.782;16.378;2022-10-16T05:10:15;4.00;;;3.60;;
10725;SDS011;5414;59.782;16.378;2022-10-16T05:12:41;7.73;;;3.33;;
10725;SDS011;5414;59.782;16.378;2022-10-16T05:15:07;4.03;;;3.53;;
10725;SDS011;5414;59.782;16.378;2022-10-16T05:17:34;4.40;;;3.27;;
10725;SDS011;5414;59.782;16.378;2022-10-16T05:20:01;4.03;;;3.47;;
10725;SDS011;5414;59.782;16.378;2022-10-16T05:22:28;4.70;;;3.60;;
10725;SDS011;5414;59.782;16.378;2022-10-16T05:24:55;3.80;;;3.40;;
10725;SDS011;5414;59.782;16.378;2022-10-16T05:27:22;8.23;;;3.70;;
10725;SDS011;5414;59.782;16.378;2022-10-16T05:29:48;4.27;;;3.50;;
10725;SDS011;5414;59.782;16.378;2022-10-16T05:32:15;4.10;;;3.67;;
10725;SDS011;5414;59.782;16.378;2022-10-16T05:34:41;4.07;;;3.00;;
10725;SDS011;5414;59.782;16.378;2022-10-16T05:37:07;3.47;;;3.17;;
10725;SDS011;5414;59.782;16.378;2022-10-16T05:39:33;4.07;;;3.00;;
10725;SDS011;5414;59.782;16.378;2022-10-16T05:42:00;4.60;;;3.37;;
10725;SDS011;5414;59.782;16.378;2022-10-16T05:44:25;3.83;;;3.43;;
10725;SDS011;5414;59.782;16.378;2022-10-16T05:46:53;3.40;;;3.10;;
10725;SDS011;5414;59.782;16.378;2022-10-16T05:49:19;3.60;;;2.90;;
10725;SDS011;5414;59.782;16.378;2022-10-16T05:51:46;3.53;;;2.80;;
10725;SDS011;5414;59.782;16.378;2022-10-16T05:54:12;2.70;;;2.50;;
10725;SDS011;5414;59.782;16.378;2022-10-16T05:56:38;2.60;;;2.40;;
10725;SDS011;5414;59.782;16.378;2022-10-16T05:59:04;4.67;;;3.43;;
10725;SDS011;5414;59.782;16.378;2022-10-16T06:01:30;3.97;;;3.10;;
10725;SDS011;5414;59.782;16.378;2022-10-16T06:03:58;4.30;;;3.10;;
10725;SDS011;5414;59.782;16.378;2022-10-16T06:06:25;3.33;;;2.83;;
10725;SDS011;5414;59.782;16.378;2022-10-16T06:08:53;3.50;;;3.13;;
10725;SDS011;5414;59.782;16.378;2022-10-16T06:11:21;3.23;;;2.93;;
10725;SDS011;5414;59.782;16.378;2022-10-16T06:13:53;3.20;;;3.00;;
10725;SDS011;5414;59.782;16.378;2022-10-16T06:16:21;3.63;;;3.33;;
10725;SDS011;5414;59.782;16.378;2022-10-16T06:18:47;4.53;;;3.40;;
10725;SDS011;5414;59.782;16.378;2022-10-16T06:21:14;4.17;;;3.77;;
10725;SDS011;5414;59.782;16.378;2022-10-16T06:23:41;4.07;;;3.67;;
10725;SDS011;5414;59.782;16.378;2022-10-16T06:26:09;5.57;;;3.70;;
10725;SDS011;5414;59.782;16.378;2022-10-16T06:28:35;4.60;;;4.20;;
10725;SDS011;5414;59.782;16.378;2022-10-16T06:31:01;4.70;;;4.30;;
10725;SDS011;5414;59.782;16.378;2022-10-16T06:33:28;7.07;;;4.57;;
10725;SDS011;5414;59.782;16.378;2022-10-16T06:35:59;6.10;;;4.73;;
10725;SDS011;5414;59.782;16.378;2022-10-16T06:38:25;6.20;;;4.87;;
10725;SDS011;5414;59.782;16.378;2022-10-16T06:40:53;4.93;;;4.47;;
10725;SDS011;5414;59.782;16.378;2022-10-16T06:43:19;4.93;;;4.53;;
10725;SDS011;5414;59.782;16.378;2022-10-16T06:45:54;5.83;;;4.60;;
10725;SDS011;5414;59.782;16.378;2022-10-16T06:48:21;5.87;;;4.93;;
10725;SDS011;5414;59.782;16.378;2022-10-16T06:51:00;6.17;;;4.60;;
10725;SDS011;5414;59.782;16.378;2022-10-16T06:53:27;7.10;;;4.73;;
10725;SDS011;5414;59.782;16.378;2022-10-16T06:55:54;4.90;;;4.23;;
10725;SDS011;5414;59.782;16.378;2022-10-16T06:58:20;5.73;;;4.40;;
10725;SDS011;5414;59.782;16.378;2022-10-16T07:00:46;6.80;;;4.43;;
10725;SDS011;5414;59.782;16.378;2022-10-16T07:03:12;7.03;;;4.27;;
10725;SDS011;5414;59.782;16.378;2022-10-16T07:05:39;4.70;;;4.00;;
10725;SDS011;5414;59.782;16.378;2022-10-16T07:08:05;5.23;;;3.97;;
10725;SDS011;5414;59.782;16.378;2022-10-16T07:10:31;4.77;;;3.70;;
10725;SDS011;5414;59.782;16.378;2022-10-16T07:12:58;5.77;;;4.00;;
10725;SDS011;5414;59.782;16.378;2022-10-16T07:15:24;7.00;;;4.00;;
10725;SDS011;5414;59.782;16.378;2022-10-16T07:17:50;5.53;;;3.93;;
10725;SDS011;5414;59.782;16.378;2022-10-16T07:20:16;7.10;;;4.03;;
10725;SDS011;5414;59.782;16.378;2022-10-16T07:22:42;5.87;;;3.70;;
10725;SDS011;5414;59.782;16.378;2022-10-16T07:25:08;6.07;;;3.50;;
10725;SDS011;5414;59.782;16.378;2022-10-16T07:27:34;7.07;;;3.93;;
10725;SDS011;5414;59.782;16.378;2022-10-16T07:30:00;5.23;;;3.90;;
10725;SDS011;5414;59.782;16.378;2022-10-16T07:32:28;5.67;;;3.73;;
10725;SDS011;5414;59.782;16.378;2022-10-16T07:34:55;6.73;;;4.27;;
10725;SDS011;5414;59.782;16.378;2022-10-16T07:37:21;6.40;;;4.17;;
10725;SDS011;5414;59.782;16.378;2022-10-16T07:39:47;6.87;;;5.13;;
10725;SDS011;5414;59.782;16.378;2022-10-16T07:42:14;5.50;;;3.90;;
10725;SDS011;5414;59.782;16.378;2022-10-16T07:44:41;8.43;;;3.83;;
10725;SDS011;5414;59.782;16.378;2022-10-16T07:47:07;7.23;;;5.13;;
10725;SDS011;5414;59.782;16.378;2022-10-16T07:49:33;7.00;;;4.40;;
10725;SDS011;5414;59.782;16.378;2022-10-16T07:51:59;8.17;;;5.27;;
10725;SDS011;5414;59.782;16.378;2022-10-16T07:54:25;7.13;;;5.67;;
10725;SDS011;5414;59.782;16.378;2022-10-16T07:56:51;10.90;;;8.20;;
10725;SDS011;5414;59.782;16.378;2022-10-16T07:59:17;8.17;;;3.50;;
10725;SDS011;5414;59.782;16.378;2022-10-16T08:01:43;5.70;;;4.53;;
10725;SDS011;5414;59.782;16.378;2022-10-16T08:04:11;4.43;;;3.00;;
10725;SDS011;5414;59.782;16.378;2022-10-16T08:06:37;6.93;;;4.13;;
10725;SDS011;5414;59.782;16.378;2022-10-16T08:09:04;6.37;;;3.07;;
10725;SDS011;5414;59.782;16.378;2022-10-16T08:11:30;5.37;;;2.70;;
10725;SDS011;5414;59.782;16.378;2022-10-16T08:13:56;8.00;;;6.13;;
10725;SDS011;5414;59.782;16.378;2022-10-16T08:16:22;8.00;;;3.53;;
10725;SDS011;5414;59.782;16.378;2022-10-16T08:18:48;7.10;;;3.07;;
10725;SDS011;5414;59.782;16.378;2022-10-16T08:21:16;7.80;;;2.90;;
10725;SDS011;5414;59.782;16.378;2022-10-16T08:23:43;4.20;;;3.40;;
10725;SDS011;5414;59.782;16.378;2022-10-16T08:26:09;7.80;;;6.03;;
10725;SDS011;5414;59.782;16.378;2022-10-16T08:28:36;8.30;;;3.53;;
10725;SDS011;5414;59.782;16.378;2022-10-16T08:31:09;7.07;;;3.63;;
10725;SDS011;5414;59.782;16.378;2022-10-16T08:33:36;6.33;;;2.60;;
10725;SDS011;5414;59.782;16.378;2022-10-16T08:36:02;5.90;;;3.00;;
10725;SDS011;5414;59.782;16.378;2022-10-16T08:38:29;5.43;;;3.30;;
10725;SDS011;5414;59.782;16.378;2022-10-16T08:43:43;5.47;;;2.83;;
10725;SDS011;5414;59.782;16.378;2022-10-16T08:49:11;6.90;;;3.27;;
10725;SDS011;5414;59.782;16.378;2022-10-16T08:51:38;5.37;;;3.70;;
10725;SDS011;5414;59.782;16.378;2022-10-16T08:54:06;4.83;;;2.40;;
10725;SDS011;5414;59.782;16.378;2022-10-16T08:56:33;5.60;;;2.40;;
10725;SDS011;5414;59.782;16.378;2022-10-16T08:58:59;7.00;;;2.80;;
10725;SDS011;5414;59.782;16.378;2022-10-16T09:01:59;6.90;;;4.97;;
10725;SDS011;5414;59.782;16.378;2022-10-16T09:07:20;3.87;;;2.40;;
10725;SDS011;5414;59.782;16.378;2022-10-16T09:12:18;6.57;;;2.97;;
10725;SDS011;5414;59.782;16.378;2022-10-16T09:14:50;5.27;;;2.60;;
10725;SDS011;5414;59.782;16.378;2022-10-16T09:22:48;7.13;;;3.60;;
10725;SDS011;5414;59.782;16.378;2022-10-16T09:25:18;6.97;;;3.30;;
10725;SDS011;5414;59.782;16.378;2022-10-16T09:27:50;6.03;;;2.80;;
10725;SDS011;5414;59.782;16.378;2022-10-16T09:30:18;7.93;;;3.50;;
10725;SDS011;5414;59.782;16.378;2022-10-16T09:32:45;6.03;;;2.30;;
10725;SDS011;5414;59.782;16.378;2022-10-16T09:35:14;5.63;;;2.53;;
10725;SDS011;5414;59.782;16.378;2022-10-16T09:37:42;6.90;;;2.27;;
10725;SDS011;5414;59.782;16.378;2022-10-16T09:40:13;6.27;;;2.30;;
10725;SDS011;5414;59.782;16.378;2022-10-16T09:42:39;7.90;;;4.03;;
10725;SDS011;5414;59.782;16.378;2022-10-16T09:45:05;8.27;;;2.73;;
10725;SDS011;5414;59.782;16.378;2022-10-16T09:47:31;5.03;;;2.23;;
10725;SDS011;5414;59.782;16.378;2022-10-16T09:50:03;5.33;;;2.53;;
10725;SDS011;5414;59.782;16.378;2022-10-16T09:52:31;9.37;;;2.70;;
10725;SDS011;5414;59.782;16.378;2022-10-16T09:55:02;4.40;;;2.23;;
10725;SDS011;5414;59.782;16.378;2022-10-16T09:57:48;20.83;;;14.70;;
10725;SDS011;5414;59.782;16.378;2022-10-16T10:00:15;7.30;;;3.30;;
10725;SDS011;5414;59.782;16.378;2022-10-16T10:02:42;11.10;;;5.20;;
10725;SDS011;5414;59.782;16.378;2022-10-16T10:05:27;10.50;;;6.47;;
10725;SDS011;5414;59.782;16.378;2022-10-16T10:08:03;10.13;;;6.10;;
10725;SDS011;5414;59.782;16.378;2022-10-16T10:10:32;9.10;;;5.63;;
10725;SDS011;5414;59.782;16.378;2022-10-16T10:12:58;4.63;;;2.70;;
10725;SDS011;5414;59.782;16.378;2022-10-16T10:15:32;6.83;;;2.60;;
10725;SDS011;5414;59.782;16.378;2022-10-16T10:18:00;8.00;;;3.10;;
10725;SDS011;5414;59.782;16.378;2022-10-16T10:20:29;7.93;;;2.80;;
10725;SDS011;5414;59.782;16.378;2022-10-16T10:22:57;8.07;;;3.17;;
10725;SDS011;5414;59.782;16.378;2022-10-16T10:25:29;7.60;;;2.77;;
10725;SDS011;5414;59.782;16.378;2022-10-16T10:46:38;10.23;;;3.03;;
10725;SDS011;5414;59.782;16.378;2022-10-16T11:01:59;6.83;;;2.70;;
10725;SDS011;5414;59.782;16.378;2022-10-16T11:07:38;4.73;;;2.43;;
10725;SDS011;5414;59.782;16.378;2022-10-16T11:09:45;5.90;;;2.67;;
10725;SDS011;5414;59.782;16.378;2022-10-16T11:12:20;5.63;;;3.13;;
10725;SDS011;5414;59.782;16.378;2022-10-16T11:17:38;6.33;;;2.53;;
10725;SDS011;5414;59.782;16.378;2022-10-16T11:20:24;6.23;;;2.80;;
10725;SDS011;5414;59.782;16.378;2022-10-16T11:22:53;9.17;;;2.53;;
10725;SDS011;5414;59.782;16.378;2022-10-16T11:25:22;9.73;;;2.80;;
10725;SDS011;5414;59.782;16.378;2022-10-16T11:30:25;8.33;;;2.70;;
10725;SDS011;5414;59.782;16.378;2022-10-16T11:35:19;8.30;;;3.00;;
10725;SDS011;5414;59.782;16.378;2022-10-16T11:37:47;7.33;;;2.70;;
10725;SDS011;5414;59.782;16.378;2022-10-16T11:40:23;6.80;;;2.43;;
10725;SDS011;5414;59.782;16.378;2022-10-16T11:51:05;5.53;;;2.60;;
10725;SDS011;5414;59.782;16.378;2022-10-16T11:53:48;7.50;;;2.73;;
10725;SDS011;5414;59.782;16.378;2022-10-16T11:56:17;6.40;;;2.47;;
10725;SDS011;5414;59.782;16.378;2022-10-16T11:59:00;7.53;;;2.57;;
10725;SDS011;5414;59.782;16.378;2022-10-16T12:01:32;6.13;;;2.67;;
10725;SDS011;5414;59.782;16.378;2022-10-16T12:04:16;6.63;;;2.67;;
10725;SDS011;5414;59.782;16.378;2022-10-16T12:09:13;8.60;;;3.10;;
10725;SDS011;5414;59.782;16.378;2022-10-16T12:11:41;6.07;;;2.30;;
10725;SDS011;5414;59.782;16.378;2022-10-16T12:16:37;6.93;;;2.80;;
10725;SDS011;5414;59.782;16.378;2022-10-16T12:19:13;7.87;;;2.57;;
10725;SDS011;5414;59.782;16.378;2022-10-16T12:21:40;9.93;;;2.70;;
10725;SDS011;5414;59.782;16.378;2022-10-16T12:24:06;5.07;;;2.40;;
10725;SDS011;5414;59.782;16.378;2022-10-16T12:26:46;8.57;;;3.00;;
10725;SDS011;5414;59.782;16.378;2022-10-16T12:29:23;6.47;;;3.10;;
10725;SDS011;5414;59.782;16.378;2022-10-16T12:31:52;6.90;;;2.87;;
10725;SDS011;5414;59.782;16.378;2022-10-16T12:34:22;6.17;;;2.43;;
10725;SDS011;5414;59.782;16.378;2022-10-16T12:36:50;5.67;;;2.50;;
10725;SDS011;5414;59.782;16.378;2022-10-16T12:39:27;6.60;;;2.93;;
10725;SDS011;5414;59.782;16.378;2022-10-16T12:42:01;9.23;;;3.00;;
10725;SDS011;5414;59.782;16.378;2022-10-16T12:44:33;5.83;;;2.83;;
10725;SDS011;5414;59.782;16.378;2022-10-16T12:46:59;9.67;;;3.10;;
10725;SDS011;5414;59.782;16.378;2022-10-16T12:49:30;6.53;;;3.03;;
10725;SDS011;5414;59.782;16.378;2022-10-16T12:51:56;7.07;;;3.40;;
10725;SDS011;5414;59.782;16.378;2022-10-16T13:04:49;4.87;;;3.40;;
10725;SDS011;5414;59.782;16.378;2022-10-16T13:12:44;6.97;;;3.90;;
10725;SDS011;5414;59.782;16.378;2022-10-16T13:28:21;6.03;;;3.60;;
10725;SDS011;5414;59.782;16.378;2022-10-16T13:30:51;5.33;;;4.17;;
10725;SDS011;5414;59.782;16.378;2022-10-16T13:33:35;6.50;;;3.67;;
10725;SDS011;5414;59.782;16.378;2022-10-16T13:36:02;6.17;;;3.40;;
10725;SDS011;5414;59.782;16.378;2022-10-16T13:38:35;7.80;;;4.03;;
10725;SDS011;5414;59.782;16.378;2022-10-16T13:46:21;6.13;;;3.20;;
10725;SDS011;5414;59.782;16.378;2022-10-16T13:49:02;5.13;;;3.97;;
10725;SDS011;5414;59.782;16.378;2022-10-16T13:51:29;5.40;;;3.33;;
10725;SDS011;5414;59.782;16.378;2022-10-16T13:53:55;5.47;;;3.17;;
10725;SDS011;5414;59.782;16.378;2022-10-16T13:56:22;4.50;;;3.27;;
10725;SDS011;5414;59.782;16.378;2022-10-16T13:59:00;5.43;;;3.13;;
10725;SDS011;5414;59.782;16.378;2022-10-16T14:01:33;6.13;;;3.10;;
10725;SDS011;5414;59.782;16.378;2022-10-16T14:04:01;6.03;;;3.20;;
10725;SDS011;5414;59.782;16.378;2022-10-16T14:06:28;4.73;;;3.17;;
10725;SDS011;5414;59.782;16.378;2022-10-16T14:08:57;5.07;;;3.00;;
10725;SDS011;5414;59.782;16.378;2022-10-16T14:11:25;6.20;;;3.53;;
10725;SDS011;5414;59.782;16.378;2022-10-16T14:13:51;5.90;;;3.97;;
10725;SDS011;5414;59.782;16.378;2022-10-16T14:16:18;8.07;;;4.00;;
10725;SDS011;5414;59.782;16.378;2022-10-16T14:18:46;2.90;;;2.63;;
10725;SDS011;5414;59.782;16.378;2022-10-16T14:21:15;4.00;;;2.53;;
10725;SDS011;5414;59.782;16.378;2022-10-16T14:23:42;4.63;;;2.90;;
10725;SDS011;5414;59.782;16.378;2022-10-16T14:28:34;5.50;;;3.20;;
10725;SDS011;5414;59.782;16.378;2022-10-16T14:31:01;4.13;;;3.03;;
10725;SDS011;5414;59.782;16.378;2022-10-16T14:38:32;4.37;;;2.40;;
10725;SDS011;5414;59.782;16.378;2022-10-16T14:40:59;3.90;;;2.00;;
10725;SDS011;5414;59.782;16.378;2022-10-16T14:43:32;3.63;;;2.10;;
10725;SDS011;5414;59.782;16.378;2022-10-16T14:45:59;3.93;;;1.80;;
10725;SDS011;5414;59.782;16.378;2022-10-16T14:48:27;4.67;;;2.20;;
10725;SDS011;5414;59.782;16.378;2022-10-16T14:50:53;4.60;;;2.10;;
10725;SDS011;5414;59.782;16.378;2022-10-16T14:53:20;2.70;;;1.80;;
10725;SDS011;5414;59.782;16.378;2022-10-16T14:55:46;4.33;;;2.17;;
10725;SDS011;5414;59.782;16.378;2022-10-16T14:58:17;4.30;;;1.70;;
10725;SDS011;5414;59.782;16.378;2022-10-16T15:00:43;2.60;;;1.93;;
10725;SDS011;5414;59.782;16.378;2022-10-16T15:03:09;2.70;;;1.50;;
10725;SDS011;5414;59.782;16.378;2022-10-16T15:05:35;1.50;;;1.40;;
10725;SDS011;5414;59.782;16.378;2022-10-16T15:08:02;4.50;;;1.70;;
10725;SDS011;5414;59.782;16.378;2022-10-16T15:10:29;3.47;;;1.60;;
10725;SDS011;5414;59.782;16.378;2022-10-16T15:12:57;2.77;;;1.63;;
10725;SDS011;5414;59.782;16.378;2022-10-16T15:17:50;2.00;;;1.50;;
10725;SDS011;5414;59.782;16.378;2022-10-16T15:20:21;2.77;;;1.70;;
10725;SDS011;5414;59.782;16.378;2022-10-16T15:22:47;3.27;;;1.43;;
10725;SDS011;5414;59.782;16.378;2022-10-16T15:25:30;3.10;;;1.47;;
10725;SDS011;5414;59.782;16.378;2022-10-16T15:27:57;1.90;;;1.23;;
10725;SDS011;5414;59.782;16.378;2022-10-16T15:30:23;3.67;;;1.50;;
10725;SDS011;5414;59.782;16.378;2022-10-16T15:32:49;3.70;;;1.40;;
10725;SDS011;5414;59.782;16.378;2022-10-16T15:35:15;1.80;;;1.40;;
10725;SDS011;5414;59.782;16.378;2022-10-16T15:37:41;2.50;;;1.30;;
10725;SDS011;5414;59.782;16.378;2022-10-16T15:40:08;3.13;;;1.80;;
10725;SDS011;5414;59.782;16.378;2022-10-16T15:42:34;5.47;;;1.87;;
10725;SDS011;5414;59.782;16.378;2022-10-16T15:45:00;3.87;;;1.60;;
10725;SDS011;5414;59.782;16.378;2022-10-16T15:47:26;3.10;;;1.73;;
10725;SDS011;5414;59.782;16.378;2022-10-16T15:49:52;4.07;;;1.40;;
10725;SDS011;5414;59.782;16.378;2022-10-16T15:52:18;5.67;;;1.80;;
10725;SDS011;5414;59.782;16.378;2022-10-16T15:54:44;7.27;;;1.80;;
10725;SDS011;5414;59.782;16.378;2022-10-16T15:57:10;2.37;;;1.60;;
10725;SDS011;5414;59.782;16.378;2022-10-16T15:59:36;4.03;;;1.80;;
10725;SDS011;5414;59.782;16.378;2022-10-16T16:02:02;6.63;;;1.93;;
10725;SDS011;5414;59.782;16.378;2022-10-16T16:04:31;3.07;;;1.70;;
10725;SDS011;5414;59.782;16.378;2022-10-16T16:06:57;3.23;;;1.43;;
10725;SDS011;5414;59.782;16.378;2022-10-16T16:09:23;2.60;;;1.73;;
10725;SDS011;5414;59.782;16.378;2022-10-16T16:11:49;1.93;;;1.30;;
10725;SDS011;5414;59.782;16.378;2022-10-16T16:14:17;4.33;;;1.33;;
10725;SDS011;5414;59.782;16.378;2022-10-16T16:16:43;2.73;;;1.40;;
10725;SDS011;5414;59.782;16.378;2022-10-16T16:19:09;2.40;;;1.07;;
10725;SDS011;5414;59.782;16.378;2022-10-16T16:21:35;4.53;;;1.27;;
10725;SDS011;5414;59.782;16.378;2022-10-16T16:24:01;2.73;;;1.20;;
10725;SDS011;5414;59.782;16.378;2022-10-16T16:26:32;2.60;;;1.03;;
10725;SDS011;5414;59.782;16.378;2022-10-16T16:29:02;3.17;;;1.10;;
10725;SDS011;5414;59.782;16.378;2022-10-16T16:31:28;1.73;;;1.03;;
10725;SDS011;5414;59.782;16.378;2022-10-16T16:33:55;3.43;;;1.13;;
10725;SDS011;5414;59.782;16.378;2022-10-16T16:36:21;3.90;;;1.20;;
10725;SDS011;5414;59.782;16.378;2022-10-16T16:38:48;3.23;;;1.57;;
10725;SDS011;5414;59.782;16.378;2022-10-16T16:41:18;2.87;;;1.30;;
10725;SDS011;5414;59.782;16.378;2022-10-16T16:43:44;2.70;;;1.30;;
10725;SDS011;5414;59.782;16.378;2022-10-16T16:46:12;1.97;;;1.00;;
10725;SDS011;5414;59.782;16.378;2022-10-16T16:48:38;2.37;;;1.03;;
10725;SDS011;5414;59.782;16.378;2022-10-16T16:51:08;2.63;;;1.00;;
10725;SDS011;5414;59.782;16.378;2022-10-16T16:53:34;3.53;;;1.27;;
10725;SDS011;5414;59.782;16.378;2022-10-16T16:56:04;2.23;;;1.27;;
10725;SDS011;5414;59.782;16.378;2022-10-16T16:58:30;1.90;;;1.57;;
10725;SDS011;5414;59.782;16.378;2022-10-16T17:00:57;1.80;;;1.30;;